createdAt,value
2019-03-15T00:02:16.830Z,1.90
2019-03-15T00:04:46.531Z,1.75
2019-03-15T00:07:15.797Z,2.00
2019-03-15T00:09:45.076Z,1.87
2019-03-15T00:12:14.350Z,2.15
2019-03-15T00:14:43.638Z,1.82
2019-03-15T00:17:13.223Z,1.65
2019-03-15T00:19:42.797Z,1.75
2019-03-15T00:22:12.043Z,1.95
2019-03-15T00:24:41.314Z,2.10
2019-03-15T00:27:10.688Z,1.65
2019-03-15T00:29:39.940Z,1.80
2019-03-15T00:32:10.484Z,1.75
2019-03-15T00:34:39.752Z,1.70
2019-03-15T00:37:09.033Z,1.45
2019-03-15T00:39:38.307Z,1.75
2019-03-15T00:42:08.418Z,1.67
2019-03-15T00:44:37.721Z,2.27
2019-03-15T00:47:07.018Z,1.72
2019-03-15T00:49:36.287Z,1.75
2019-03-15T00:52:05.575Z,1.82
2019-03-15T00:54:34.840Z,1.30
2019-03-15T00:57:04.117Z,1.85
2019-03-15T00:59:33.383Z,1.95
2019-03-15T01:02:02.672Z,3.50
2019-03-15T01:04:31.927Z,1.90
2019-03-15T01:07:01.485Z,1.77
2019-03-15T01:09:30.751Z,1.70
2019-03-15T01:12:00.302Z,1.65
2019-03-15T01:14:29.542Z,1.10
2019-03-15T01:16:59.489Z,1.30
2019-03-15T01:19:29.753Z,1.50
2019-03-15T01:21:59.335Z,1.62
2019-03-15T01:24:29.047Z,1.47
2019-03-15T01:26:58.319Z,1.42
2019-03-15T01:29:27.589Z,1.57
2019-03-15T01:31:56.852Z,1.50
2019-03-15T01:34:26.159Z,1.92
2019-03-15T01:36:55.672Z,1.42
2019-03-15T01:39:24.944Z,1.50
2019-03-15T01:41:54.559Z,1.12
2019-03-15T01:44:23.838Z,1.35
2019-03-15T01:46:53.111Z,1.30
2019-03-15T01:49:22.387Z,1.40
2019-03-15T01:51:51.656Z,1.55
2019-03-15T01:54:20.932Z,1.30
2019-03-15T01:56:50.206Z,1.40
2019-03-15T01:59:19.482Z,1.50
2019-03-15T02:01:48.777Z,1.20
2019-03-15T02:04:18.476Z,1.32
2019-03-15T02:06:47.993Z,1.40
2019-03-15T02:09:18.604Z,1.50
2019-03-15T02:11:48.323Z,1.20
2019-03-15T02:14:17.602Z,1.20
2019-03-15T02:16:47.222Z,1.20
2019-03-15T02:19:16.499Z,2.20
2019-03-15T02:21:45.779Z,1.12
2019-03-15T02:24:15.054Z,1.25
2019-03-15T02:26:44.324Z,1.10
2019-03-15T02:29:13.739Z,1.62
2019-03-15T02:31:42.950Z,1.32
2019-03-15T02:34:12.733Z,2.08
2019-03-15T02:36:42.008Z,1.30
2019-03-15T02:39:11.287Z,1.12
2019-03-15T02:41:40.554Z,1.40
2019-03-15T02:44:09.835Z,1.17
2019-03-15T02:46:39.446Z,1.57
2019-03-15T02:49:08.724Z,1.77
2019-03-15T02:51:37.991Z,1.20
2019-03-15T02:54:07.272Z,1.20
2019-03-15T02:56:36.535Z,1.32
2019-03-15T02:59:05.816Z,1.30
2019-03-15T03:01:35.090Z,1.50
2019-03-15T03:04:04.372Z,1.45
2019-03-15T03:06:34.047Z,1.35
2019-03-15T03:09:03.970Z,1.60
2019-03-15T03:11:33.576Z,1.77
2019-03-15T03:14:04.291Z,1.40
2019-03-15T03:16:33.810Z,1.30
2019-03-15T03:19:03.086Z,1.47
2019-03-15T03:21:32.359Z,1.30
2019-03-15T03:24:01.642Z,1.42
2019-03-15T03:26:30.914Z,1.60
2019-03-15T03:29:00.191Z,1.30
2019-03-15T03:31:29.730Z,1.62
2019-03-15T03:33:58.994Z,1.75
2019-03-15T03:36:28.278Z,2.02
2019-03-15T03:38:57.620Z,1.90
2019-03-15T03:41:26.896Z,2.77
2019-03-15T03:43:56.173Z,1.80
2019-03-15T03:46:25.726Z,2.00
2019-03-15T03:48:55.004Z,2.60
2019-03-15T03:51:24.641Z,2.47
2019-03-15T03:53:54.358Z,1.30
2019-03-15T03:56:23.631Z,1.50
2019-03-15T03:58:52.980Z,1.80
2019-03-15T04:01:22.254Z,1.90
2019-03-15T04:03:51.528Z,1.50
2019-03-15T04:06:20.795Z,1.65
2019-03-15T04:08:50.074Z,1.72
2019-03-15T04:11:19.348Z,1.70
2019-03-15T04:13:48.626Z,1.95
2019-03-15T04:16:17.895Z,1.82
2019-03-15T04:18:47.618Z,1.75
2019-03-15T04:21:16.890Z,1.75
2019-03-15T04:23:46.168Z,2.00
2019-03-15T04:26:16.273Z,2.55
2019-03-15T04:28:45.881Z,1.80
2019-03-15T04:31:15.153Z,2.37
2019-03-15T04:33:44.430Z,1.92
2019-03-15T04:36:13.704Z,2.10
2019-03-15T04:38:42.975Z,1.80
2019-03-15T04:41:12.307Z,1.80
2019-03-15T04:43:41.866Z,2.15
2019-03-15T04:46:11.136Z,2.30
2019-03-15T04:48:40.402Z,2.00
2019-03-15T04:51:10.119Z,2.10
2019-03-15T04:53:39.395Z,2.75
2019-03-15T04:56:08.664Z,2.05
2019-03-15T04:58:37.928Z,2.40
2019-03-15T05:01:07.194Z,3.27
2019-03-15T05:03:36.795Z,2.12
2019-03-15T05:06:06.068Z,2.65
2019-03-15T05:08:35.601Z,2.60
2019-03-15T05:11:04.956Z,2.85
2019-03-15T05:13:34.348Z,2.72
2019-03-15T05:16:03.847Z,2.50
2019-03-15T05:18:33.127Z,2.35
2019-03-15T05:21:02.412Z,2.95
2019-03-15T05:23:31.958Z,3.08
2019-03-15T05:26:01.230Z,3.65
2019-03-15T05:28:30.510Z,2.85
2019-03-15T05:30:59.779Z,2.20
2019-03-15T05:33:29.327Z,2.55
2019-03-15T05:35:58.937Z,2.77
2019-03-15T05:38:28.543Z,3.20
2019-03-15T05:40:58.151Z,3.10
2019-03-15T05:43:27.427Z,3.25
2019-03-15T05:45:56.965Z,3.02
2019-03-15T05:48:26.483Z,3.00
2019-03-15T05:50:55.765Z,3.00
2019-03-15T05:53:25.040Z,2.85
2019-03-15T05:55:54.314Z,2.83
2019-03-15T05:58:24.545Z,2.80
2019-03-15T06:00:53.840Z,2.65
2019-03-15T06:03:23.082Z,2.67
2019-03-15T06:05:52.697Z,2.52
2019-03-15T06:08:22.309Z,4.00
2019-03-15T06:10:54.724Z,2.60
2019-03-15T06:13:22.890Z,2.70
2019-03-15T06:15:52.580Z,2.80
2019-03-15T06:18:21.864Z,2.83
2019-03-15T06:20:51.476Z,2.90
2019-03-15T06:23:22.002Z,2.55
2019-03-15T06:25:51.286Z,3.10
2019-03-15T06:28:20.546Z,3.00
2019-03-15T06:30:50.115Z,2.60
2019-03-15T06:33:19.743Z,3.70
2019-03-15T06:35:49.420Z,3.12
2019-03-15T06:38:19.239Z,3.72
2019-03-15T06:40:48.535Z,3.80
2019-03-15T06:43:18.111Z,2.90
2019-03-15T06:45:47.850Z,2.35
2019-03-15T06:48:17.455Z,2.40
2019-03-15T06:50:47.064Z,2.40
2019-03-15T06:53:16.586Z,1.52
2019-03-15T06:55:46.177Z,1.50
2019-03-15T06:58:15.785Z,1.70
2019-03-15T07:00:45.422Z,1.67
2019-03-15T07:03:15.000Z,1.42
2019-03-15T07:05:44.607Z,1.50
2019-03-15T07:08:14.141Z,1.32
2019-03-15T07:10:44.367Z,1.32
2019-03-15T07:13:13.766Z,1.42
2019-03-15T07:15:44.498Z,1.25
2019-03-15T07:18:14.212Z,1.42
2019-03-15T07:20:43.743Z,1.20
2019-03-15T07:23:13.027Z,1.10
2019-03-15T07:25:42.595Z,0.90
2019-03-15T07:28:12.136Z,0.93
2019-03-15T07:30:41.710Z,0.98
2019-03-15T07:33:11.013Z,0.90
2019-03-15T07:35:40.281Z,1.00
2019-03-15T07:38:09.561Z,1.07
2019-03-15T07:40:39.138Z,0.93
2019-03-15T07:43:09.030Z,0.88
2019-03-15T07:45:38.757Z,0.80
2019-03-15T07:48:21.270Z,0.93
2019-03-15T07:50:39.728Z,0.82
2019-03-15T07:53:09.307Z,1.00
2019-03-15T07:55:39.058Z,1.00
2019-03-15T07:58:08.622Z,1.43
2019-03-15T08:00:38.362Z,0.65
2019-03-15T08:03:07.615Z,0.80
2019-03-15T08:05:37.028Z,0.93
2019-03-15T08:08:07.431Z,0.70
2019-03-15T08:10:36.703Z,0.80
2019-03-15T08:13:06.252Z,0.90
2019-03-15T08:15:35.553Z,0.70
2019-03-15T08:18:04.822Z,0.85
2019-03-15T08:20:34.171Z,0.80
2019-03-15T08:23:03.444Z,0.60
2019-03-15T08:25:32.712Z,0.70
2019-03-15T08:28:02.241Z,0.60
2019-03-15T08:30:31.510Z,0.70
2019-03-15T08:33:10.078Z,0.80
2019-03-15T08:35:32.341Z,0.70
2019-03-15T08:38:01.615Z,0.73
2019-03-15T08:40:30.920Z,0.70
2019-03-15T08:43:00.450Z,1.03
2019-03-15T08:45:29.946Z,0.80
2019-03-15T08:47:59.546Z,1.27
2019-03-15T08:50:29.166Z,0.70
2019-03-15T08:52:58.429Z,0.90
2019-03-15T08:55:27.692Z,0.90
2019-03-15T08:57:56.969Z,1.10
2019-03-15T09:00:26.259Z,1.07
2019-03-15T09:02:55.535Z,0.90
2019-03-15T09:05:25.190Z,0.93
2019-03-15T09:07:54.491Z,1.10
2019-03-15T09:10:24.390Z,1.30
2019-03-15T09:12:53.681Z,1.07
2019-03-15T09:15:22.964Z,1.20
2019-03-15T09:17:52.790Z,1.07
2019-03-15T09:20:22.516Z,1.60
2019-03-15T09:22:51.838Z,0.93
2019-03-15T09:25:21.314Z,0.93
2019-03-15T09:27:50.911Z,1.30
2019-03-15T09:30:24.548Z,1.00
2019-03-15T09:32:51.511Z,1.00
2019-03-15T09:35:20.788Z,0.90
2019-03-15T09:37:50.053Z,1.10
2019-03-15T09:40:19.315Z,1.10
2019-03-15T09:42:48.866Z,1.23
2019-03-15T09:45:19.343Z,1.10
2019-03-15T09:47:49.002Z,0.90
2019-03-15T09:50:33.249Z,1.00
2019-03-15T09:52:49.708Z,0.87
2019-03-15T09:55:31.893Z,1.03
2019-03-15T09:57:50.207Z,0.70
2019-03-15T10:00:20.711Z,1.10
2019-03-15T10:02:50.047Z,1.30
2019-03-15T10:05:19.319Z,1.27
2019-03-15T10:07:48.586Z,0.80
2019-03-15T10:10:20.613Z,1.10
2019-03-15T10:12:49.892Z,0.90
2019-03-15T10:15:19.427Z,0.70
2019-03-15T10:17:48.762Z,0.80
2019-03-15T10:20:18.067Z,1.10
2019-03-15T10:23:03.984Z,1.20
2019-03-15T10:25:18.542Z,0.80
2019-03-15T10:27:47.817Z,0.90
2019-03-15T10:30:19.481Z,0.80
2019-03-15T10:32:48.862Z,1.27
2019-03-15T10:35:18.369Z,0.90
2019-03-15T10:37:47.679Z,0.77
2019-03-15T10:40:22.900Z,0.73
2019-03-15T10:42:55.350Z,0.77
2019-03-15T10:45:23.174Z,0.67
2019-03-15T10:47:52.908Z,0.90
2019-03-15T10:50:22.516Z,0.83
2019-03-15T10:52:53.830Z,0.70
2019-03-15T10:55:22.803Z,0.73
2019-03-15T10:57:52.080Z,0.70
2019-03-15T11:00:22.290Z,0.60
2019-03-15T11:02:52.401Z,0.50
2019-03-15T11:05:21.673Z,0.40
2019-03-15T11:07:51.309Z,0.40
2019-03-15T11:10:20.919Z,0.30
2019-03-15T11:12:50.632Z,0.37
2019-03-15T11:15:19.907Z,0.40
2019-03-15T11:17:49.182Z,0.33
2019-03-15T11:20:18.463Z,0.30
2019-03-15T11:22:47.731Z,0.33
2019-03-15T11:25:17.014Z,0.30
2019-03-15T11:27:46.289Z,0.30
2019-03-15T11:30:16.013Z,0.40
2019-03-15T11:32:45.294Z,0.30
2019-03-15T11:35:14.645Z,0.30
2019-03-15T11:37:43.919Z,0.37
2019-03-15T11:40:18.853Z,0.30
2019-03-15T11:42:47.208Z,0.30
2019-03-15T11:45:16.845Z,0.30
2019-03-15T11:48:01.871Z,0.30
2019-03-15T11:50:22.139Z,0.30
2019-03-15T11:52:51.826Z,0.30
2019-03-15T11:55:21.110Z,0.30
2019-03-15T11:57:50.722Z,0.30
2019-03-15T12:00:20.454Z,0.30
2019-03-15T12:02:50.039Z,0.30
2019-03-15T12:05:19.324Z,0.30
2019-03-15T12:07:48.611Z,0.20
2019-03-15T12:10:18.617Z,0.30
2019-03-15T12:12:48.174Z,0.40
2019-03-15T12:15:19.417Z,0.30
2019-03-15T12:17:49.016Z,0.30
2019-03-15T12:20:18.292Z,0.20
2019-03-15T12:22:47.565Z,0.40
2019-03-15T12:25:17.121Z,0.30
2019-03-15T12:27:46.400Z,0.30
2019-03-15T12:30:17.105Z,0.40
2019-03-15T12:32:46.389Z,0.30
2019-03-15T12:35:16.514Z,0.37
2019-03-15T12:37:45.784Z,0.30
2019-03-15T12:40:19.442Z,0.30
2019-03-15T12:42:48.721Z,0.30
2019-03-15T12:45:18.319Z,0.30
2019-03-15T12:47:47.570Z,0.30
2019-03-15T12:50:17.490Z,0.30
2019-03-15T12:52:48.210Z,0.30
2019-03-15T12:55:18.149Z,0.37
2019-03-15T12:57:49.250Z,0.40
2019-03-15T13:00:22.019Z,0.40
2019-03-15T13:02:51.300Z,0.40
2019-03-15T13:05:20.594Z,0.30
2019-03-15T13:07:50.220Z,0.40
2019-03-15T13:10:21.569Z,0.40
2019-03-15T13:12:50.846Z,0.40
2019-03-15T13:15:20.135Z,0.40
2019-03-15T13:17:49.478Z,0.50
2019-03-15T13:20:19.079Z,0.50
2019-03-15T13:22:48.334Z,0.30
2019-03-15T13:25:17.949Z,0.40
2019-03-15T13:27:47.599Z,0.40
2019-03-15T13:30:19.744Z,0.47
2019-03-15T13:32:49.432Z,0.37
2019-03-15T13:35:18.718Z,0.50
2019-03-15T13:37:47.993Z,0.40
2019-03-15T13:40:20.718Z,0.50
2019-03-15T13:42:49.998Z,0.47
2019-03-15T13:45:19.360Z,0.43
2019-03-15T13:47:48.925Z,0.40
2019-03-15T13:50:21.359Z,0.40
2019-03-15T13:52:50.624Z,0.40
2019-03-15T13:55:19.924Z,0.40
2019-03-15T13:57:49.201Z,0.30
2019-03-15T14:00:19.793Z,0.30
2019-03-15T14:02:49.074Z,0.30
2019-03-15T14:05:18.343Z,0.40
2019-03-15T14:07:47.616Z,0.30
2019-03-15T14:10:17.830Z,0.30
2019-03-15T14:12:47.108Z,0.30
2019-03-15T14:15:19.838Z,0.30
2019-03-15T14:17:49.120Z,0.30
2019-03-15T14:20:18.846Z,0.40
2019-03-15T14:22:48.122Z,0.30
2019-03-15T14:25:23.291Z,0.37
2019-03-15T14:27:52.880Z,0.30
2019-03-15T14:30:22.170Z,0.30
2019-03-15T14:32:51.505Z,0.40
2019-03-15T14:35:20.789Z,0.40
2019-03-15T14:37:50.063Z,0.40
2019-03-15T14:40:19.478Z,0.33
2019-03-15T14:42:49.213Z,0.30
2019-03-15T14:45:18.604Z,0.30
2019-03-15T14:47:47.897Z,0.80
2019-03-15T14:50:17.509Z,0.37
2019-03-15T14:52:46.787Z,0.30
2019-03-15T14:55:17.254Z,0.30
2019-03-15T14:57:52.428Z,0.30
2019-03-15T15:00:19.848Z,0.40
2019-03-15T15:02:49.104Z,0.30
2019-03-15T15:05:18.376Z,0.30
2019-03-15T15:07:47.669Z,0.40
2019-03-15T15:10:18.408Z,0.40
2019-03-15T15:12:47.975Z,0.60
2019-03-15T15:15:20.891Z,0.30
2019-03-15T15:17:50.170Z,0.40
2019-03-15T15:20:19.456Z,0.30
2019-03-15T15:22:48.729Z,0.30
2019-03-15T15:25:18.740Z,0.30
2019-03-15T15:27:48.012Z,0.30
2019-03-15T15:30:18.502Z,0.30
2019-03-15T15:32:47.783Z,0.30
2019-03-15T15:35:17.052Z,0.33
2019-03-15T15:37:46.331Z,0.30
2019-03-15T15:40:17.969Z,0.20
2019-03-15T15:42:47.263Z,0.30
2019-03-15T15:45:16.830Z,0.30
2019-03-15T15:47:46.104Z,0.30
2019-03-15T15:50:16.620Z,0.20
2019-03-15T15:52:45.912Z,0.30
2019-03-15T15:55:16.496Z,0.30
2019-03-15T15:57:45.775Z,0.30
2019-03-15T16:00:18.889Z,0.30
2019-03-15T16:02:48.242Z,0.30
2019-03-15T16:05:17.523Z,0.30
2019-03-15T16:07:47.069Z,0.30
2019-03-15T16:10:18.354Z,0.30
2019-03-15T16:12:47.878Z,0.30
2019-03-15T16:15:19.457Z,0.30
2019-03-15T16:17:48.729Z,0.30
2019-03-15T16:20:18.443Z,0.40
2019-03-15T16:22:47.716Z,0.30
2019-03-15T16:25:16.996Z,0.30
2019-03-15T16:27:46.337Z,0.30
2019-03-15T16:30:22.714Z,0.30
2019-03-15T16:32:51.989Z,0.30
2019-03-15T16:35:21.280Z,0.30
2019-03-15T16:37:50.547Z,0.30
2019-03-15T16:40:19.832Z,0.40
2019-03-15T16:42:49.106Z,0.30
2019-03-15T16:45:30.242Z,0.40
2019-03-15T16:47:59.515Z,0.40
2019-03-15T16:50:28.792Z,0.30
2019-03-15T16:52:58.077Z,0.40
2019-03-15T16:55:27.352Z,0.30
2019-03-15T16:57:56.637Z,0.30
2019-03-15T17:00:25.946Z,0.67
2019-03-15T17:02:55.197Z,0.50
2019-03-15T17:05:24.477Z,0.40
2019-03-15T17:07:53.755Z,0.40
2019-03-15T17:10:23.025Z,0.40
2019-03-15T17:12:55.628Z,0.40
2019-03-15T17:15:28.571Z,0.33
2019-03-15T17:17:57.901Z,0.30
2019-03-15T17:20:27.201Z,0.60
2019-03-15T17:22:56.475Z,0.30
2019-03-15T17:25:25.755Z,0.73
2019-03-15T17:27:55.368Z,0.40
2019-03-15T17:30:24.672Z,0.40
2019-03-15T17:32:53.911Z,0.50
2019-03-15T17:35:23.199Z,0.40
2019-03-15T17:37:52.487Z,0.30
2019-03-15T17:40:22.508Z,0.40
2019-03-15T17:42:51.849Z,0.40
2019-03-15T17:45:21.121Z,0.40
2019-03-15T17:47:50.404Z,0.30
2019-03-15T17:50:24.799Z,0.40
2019-03-15T17:52:54.073Z,0.50
2019-03-15T17:55:23.350Z,0.30
2019-03-15T17:57:52.633Z,0.40
2019-03-15T18:00:38.589Z,0.40
2019-03-15T18:03:19.990Z,0.40
2019-03-15T18:05:39.985Z,0.70
2019-03-15T18:08:09.272Z,0.30
2019-03-15T18:10:38.620Z,0.50
2019-03-15T18:13:07.905Z,0.30
2019-03-15T18:15:37.187Z,0.40
2019-03-15T18:18:06.536Z,0.30
2019-03-15T18:20:35.878Z,0.30
2019-03-15T18:23:05.163Z,0.40
2019-03-15T18:25:34.758Z,0.40
2019-03-15T18:28:04.050Z,0.40
2019-03-15T18:30:33.564Z,0.30
2019-03-15T18:33:02.841Z,0.30
2019-03-15T18:35:33.962Z,0.30
2019-03-15T18:38:03.121Z,0.40
2019-03-15T18:40:32.397Z,0.30
2019-03-15T18:43:01.674Z,0.30
2019-03-15T18:45:30.961Z,0.30
2019-03-15T18:48:00.240Z,0.30
2019-03-15T18:50:29.525Z,0.30
2019-03-15T18:52:59.114Z,0.40
2019-03-15T18:55:28.725Z,0.37
2019-03-15T18:57:58.002Z,0.30
2019-03-15T19:00:27.308Z,0.30
2019-03-15T19:02:59.722Z,0.30
2019-03-15T19:05:27.570Z,0.33
2019-03-15T19:07:56.956Z,0.60
2019-03-15T19:10:26.577Z,0.40
2019-03-15T19:12:56.182Z,0.30
2019-03-15T19:15:25.789Z,0.30
2019-03-15T19:17:55.074Z,0.40
2019-03-15T19:20:24.360Z,0.30
2019-03-15T19:22:53.639Z,0.40
2019-03-15T19:25:23.191Z,0.40
2019-03-15T19:27:52.475Z,0.60
2019-03-15T19:30:22.631Z,0.30
2019-03-15T19:32:52.217Z,0.30
2019-03-15T19:35:21.498Z,0.40
2019-03-15T19:37:50.786Z,0.40
2019-03-15T19:40:23.009Z,0.30
2019-03-15T19:42:52.644Z,0.30
2019-03-15T19:45:21.877Z,0.30
2019-03-15T19:47:51.156Z,0.30
2019-03-15T19:50:21.845Z,0.40
2019-03-15T19:52:51.441Z,0.30
2019-03-15T19:55:20.729Z,0.40
2019-03-15T19:57:50.006Z,0.33
2019-03-15T20:00:21.668Z,0.30
2019-03-15T20:02:50.943Z,0.43
2019-03-15T20:05:20.265Z,0.30
2019-03-15T20:07:49.690Z,0.40
2019-03-15T20:10:19.124Z,0.30
2019-03-15T20:12:48.407Z,0.37
2019-03-15T20:15:18.523Z,0.30
2019-03-15T20:17:47.814Z,0.30
2019-03-15T20:20:20.167Z,0.40
2019-03-15T20:22:49.615Z,0.40
2019-03-15T20:25:19.368Z,0.30
2019-03-15T20:27:49.392Z,0.30
2019-03-15T20:30:27.002Z,0.57
2019-03-15T20:32:56.607Z,0.30
2019-03-15T20:35:26.336Z,0.30
2019-03-15T20:37:55.950Z,0.40
2019-03-15T20:40:25.235Z,0.30
2019-03-15T20:42:54.518Z,0.30
2019-03-15T20:45:27.759Z,0.40
2019-03-15T20:47:57.037Z,0.30
2019-03-15T20:50:26.320Z,0.40
2019-03-15T20:53:07.775Z,0.40
2019-03-15T20:55:28.855Z,0.50
2019-03-15T20:57:57.607Z,0.33
2019-03-15T21:00:35.515Z,0.50
2019-03-15T21:02:58.172Z,0.40
2019-03-15T21:05:27.693Z,0.33
2019-03-15T21:07:56.976Z,0.40
2019-03-15T21:10:26.923Z,0.30
2019-03-15T21:12:56.454Z,0.30
2019-03-15T21:15:25.975Z,0.37
2019-03-15T21:17:55.288Z,0.40
2019-03-15T21:20:24.911Z,0.40
2019-03-15T21:22:54.522Z,0.40
2019-03-15T21:25:23.808Z,0.50
2019-03-15T21:27:54.636Z,0.40
2019-03-15T21:30:28.110Z,0.40
2019-03-15T21:32:57.657Z,0.40
2019-03-15T21:35:27.468Z,0.50
2019-03-15T21:37:56.748Z,0.30
2019-03-15T21:40:26.050Z,0.40
2019-03-15T21:42:55.321Z,0.30
2019-03-15T21:45:24.594Z,0.30
2019-03-15T21:47:53.897Z,0.30
2019-03-15T21:50:24.193Z,0.33
2019-03-15T21:52:53.802Z,0.40
2019-03-15T21:55:23.075Z,0.40
2019-03-15T21:57:52.357Z,0.30
2019-03-15T22:00:21.908Z,0.30
2019-03-15T22:02:51.198Z,0.30
2019-03-15T22:05:20.456Z,0.40
2019-03-15T22:07:49.732Z,0.40
2019-03-15T22:10:19.005Z,0.30
2019-03-15T22:12:48.619Z,0.40
2019-03-15T22:15:18.034Z,0.40
2019-03-15T22:17:47.726Z,0.30
2019-03-15T22:20:19.743Z,0.30
2019-03-15T22:22:49.030Z,0.30
2019-03-15T22:25:18.604Z,0.30
2019-03-15T22:27:50.179Z,0.30
2019-03-15T22:30:18.886Z,0.30
2019-03-15T22:32:48.168Z,0.30
2019-03-15T22:35:17.693Z,0.30
2019-03-15T22:37:46.979Z,0.30
2019-03-15T22:40:16.554Z,0.30
2019-03-15T22:42:45.840Z,0.30
2019-03-15T22:45:15.583Z,0.30
2019-03-15T22:47:44.864Z,0.30
2019-03-15T22:50:15.275Z,0.30
2019-03-15T22:52:44.559Z,0.30
2019-03-15T22:55:13.925Z,0.30
2019-03-15T22:57:43.496Z,0.30
2019-03-15T23:00:19.155Z,0.30
2019-03-15T23:02:48.938Z,0.30
2019-03-15T23:05:18.210Z,0.30
2019-03-15T23:07:47.488Z,0.30
2019-03-15T23:10:16.765Z,0.30
2019-03-15T23:12:46.047Z,0.20
2019-03-15T23:15:15.670Z,0.30
2019-03-15T23:17:45.272Z,0.30
2019-03-15T23:20:14.930Z,0.30
2019-03-15T23:22:44.212Z,0.30
2019-03-15T23:25:13.581Z,0.30
2019-03-15T23:27:42.870Z,0.30
2019-03-15T23:30:17.062Z,0.40
2019-03-15T23:32:46.709Z,0.30
2019-03-15T23:35:15.980Z,0.30
2019-03-15T23:37:45.270Z,0.40
2019-03-15T23:40:15.320Z,0.30
2019-03-15T23:42:44.600Z,0.40
2019-03-15T23:45:13.883Z,0.30
2019-03-15T23:47:43.156Z,0.40
2019-03-15T23:50:14.479Z,0.40
2019-03-15T23:52:43.762Z,0.40
2019-03-15T23:55:13.488Z,0.30
2019-03-15T23:57:42.764Z,0.40
